Time;durP1;ratioP1;P1;durP2;ratioP2;P2;SDS_P1;SDS_P2;PMS_P1;PMS_P2;Temp;Humidity;BMP_temperature;BMP_pressure;BME280_temperature;BME280_humidity;BME280_pressure;Samples;Min_cycle;Max_cycle;Signal;HPM_P1;HPM_P2
2021/01/17 00:00:22;;;;;;;1999.90;999.90;;;-4.70;99.90;;;;;;5080197;28;20187;-46
2021/01/17 00:02:49;;;;;;;1999.90;999.90;;;-4.70;99.90;;;;;;5078268;28;20202;-46
2021/01/17 16:06:21;;;;;;;1999.90;999.90;;;-2.80;99.90;;;;;;5044935;28;20636;-45
2021/01/17 16:08:46;;;;;;;1999.90;999.90;;;-2.80;99.90;;;;;;5023072;28;20476;-45
2021/01/17 16:11:12;;;;;;;1999.90;999.90;;;-2.90;99.90;;;;;;5031275;28;20279;-46
2021/01/17 16:13:38;;;;;;;1999.90;999.90;;;-2.80;99.90;;;;;;5044811;28;20188;-46
2021/01/17 16:16:06;;;;;;;1999.90;999.90;;;-2.80;99.90;;;;;;5034503;28;20206;-46
2021/01/17 16:18:31;;;;;;;1999.90;999.90;;;-2.80;99.90;;;;;;5024878;28;20210;-46
2021/01/17 16:20:57;;;;;;;1999.90;999.90;;;-2.80;99.90;;;;;;5024964;28;21099;-46
2021/01/17 16:23:22;;;;;;;1999.90;999.90;;;-2.80;99.90;;;;;;5018026;28;20187;-46
2021/01/17 16:25:48;;;;;;;1999.90;999.90;;;-2.80;99.90;;;;;;5020502;28;20222;-46
2021/01/17 16:28:14;;;;;;;1999.90;999.90;;;-2.80;99.90;;;;;;5020295;28;20668;-46
2021/01/17 16:30:39;;;;;;;1999.90;999.90;;;-2.90;99.90;;;;;;5024753;28;20245;-45
2021/01/17 16:33:06;;;;;;;1999.90;999.90;;;-2.80;99.90;;;;;;5021969;28;20692;-46
2021/01/17 16:35:33;;;;;;;1999.90;999.90;;;-2.80;99.90;;;;;;5019366;28;20182;-46
2021/01/17 16:38:05;;;;;;;1999.90;999.90;;;-2.80;99.90;;;;;;5018150;28;20463;-46
2021/01/17 16:40:33;;;;;;;1999.90;999.90;;;-2.80;99.90;;;;;;5023463;28;20468;-46
2021/01/17 16:42:59;;;;;;;1999.90;999.90;;;-2.80;99.90;;;;;;5024041;28;20457;-46
2021/01/17 16:45:24;;;;;;;1999.90;999.90;;;-2.80;99.90;;;;;;5022989;28;20472;-46
2021/01/17 16:47:50;;;;;;;1999.90;999.90;;;-2.70;99.90;;;;;;5024596;28;20175;-47
2021/01/17 16:50:16;;;;;;;1999.90;999.90;;;-2.70;99.90;;;;;;5022472;28;20179;-46
2021/01/17 16:52:43;;;;;;;1999.90;999.90;;;-2.70;99.90;;;;;;5023704;28;20664;-46
2021/01/17 16:55:09;;;;;;;1999.90;999.90;;;-2.70;99.90;;;;;;5017909;28;20440;-46
2021/01/17 16:57:35;;;;;;;1999.90;999.90;;;-2.60;99.90;;;;;;5022007;28;20448;-46
2021/01/17 17:00:01;;;;;;;1999.90;999.90;;;-2.60;99.90;;;;;;5022139;28;21087;-46
2021/01/17 17:02:26;;;;;;;1999.90;999.90;;;-2.60;99.90;;;;;;5023671;28;20195;-46
2021/01/17 17:04:52;;;;;;;1999.90;999.90;;;-2.60;99.90;;;;;;5022368;28;21209;-46
2021/01/17 17:07:18;;;;;;;1999.90;999.90;;;-2.60;99.90;;;;;;5023307;28;20881;-46
2021/01/17 17:09:43;;;;;;;1999.90;999.90;;;-2.60;99.90;;;;;;5022537;28;20209;-46
2021/01/17 17:12:09;;;;;;;1999.90;999.90;;;-2.60;99.90;;;;;;5021336;28;20179;-54
2021/01/17 17:14:35;;;;;;;1999.90;999.90;;;-2.50;99.90;;;;;;5022253;28;20915;-47
2021/01/17 17:17:00;;;;;;;1999.90;999.90;;;-2.50;99.90;;;;;;5012601;28;20465;-47
2021/01/17 17:19:31;;;;;;;1999.90;999.90;;;-2.50;99.90;;;;;;5008622;28;20183;-46
2021/01/17 17:21:57;;;;;;;1999.90;999.90;;;-2.40;99.90;;;;;;5009478;28;20190;-46
2021/01/17 17:24:23;;;;;;;1999.90;999.90;;;-2.50;99.90;;;;;;5010363;28;20468;-46
2021/01/17 17:26:48;;;;;;;1999.90;999.90;;;-2.50;99.90;;;;;;5006902;28;20195;-46
2021/01/17 17:29:14;;;;;;;1999.90;999.90;;;-2.50;99.90;;;;;;5009072;28;20187;-46
2021/01/17 17:31:41;;;;;;;1999.90;999.90;;;-2.50;99.90;;;;;;5009370;28;20250;-46
2021/01/17 17:34:08;;;;;;;1999.90;999.90;;;-2.50;99.90;;;;;;5009990;28;20922;-46
2021/01/17 17:36:33;;;;;;;1999.90;999.90;;;-2.50;99.90;;;;;;5009507;28;20456;-46
2021/01/17 17:38:59;;;;;;;1999.90;999.90;;;-2.50;99.90;;;;;;5010066;28;20456;-46
2021/01/17 17:41:24;;;;;;;1999.90;999.90;;;-2.50;99.90;;;;;;5009762;28;20610;-46
2021/01/17 17:43:50;;;;;;;1999.90;999.90;;;-2.60;99.90;;;;;;5009734;28;20207;-46
2021/01/17 17:46:24;;;;;;;1999.90;999.90;;;-2.60;99.90;;;;;;5010274;28;20215;-46
2021/01/17 17:48:51;;;;;;;1999.90;999.90;;;-2.60;99.90;;;;;;5009628;28;20713;-46
2021/01/17 17:51:17;;;;;;;1999.90;999.90;;;-2.60;99.90;;;;;;5010119;28;20418;-47
2021/01/17 17:53:42;;;;;;;1999.90;999.90;;;-2.50;99.90;;;;;;5008047;28;20503;-46
2021/01/17 17:56:15;;;;;;;1999.90;999.90;;;-2.50;99.90;;;;;;5007996;28;20290;-46
2021/01/17 17:58:42;;;;;;;1999.90;999.90;;;-2.50;99.90;;;;;;5001557;28;20180;-46
2021/01/17 18:01:08;;;;;;;1999.90;999.90;;;-2.40;99.90;;;;;;5003816;28;20426;-46
2021/01/17 18:03:34;;;;;;;1999.90;999.90;;;-2.40;99.90;;;;;;5009215;28;20780;-46
2021/01/17 18:06:02;;;;;;;1999.90;999.90;;;-2.50;99.90;;;;;;5008252;28;20811;-47
2021/01/17 18:08:31;;;;;;;1999.90;999.90;;;-2.40;99.90;;;;;;5007939;28;21102;-46
2021/01/17 18:11:01;;;;;;;1999.90;999.90;;;-2.40;99.90;;;;;;5004274;28;20780;-46
2021/01/17 18:13:28;;;;;;;1999.90;999.90;;;-2.40;99.90;;;;;;5000621;28;20446;-47
2021/01/17 18:15:54;;;;;;;1999.90;999.90;;;-2.40;99.90;;;;;;5007404;28;20497;-46
2021/01/17 18:18:20;;;;;;;1999.90;999.90;;;-2.40;99.90;;;;;;5008615;28;20470;-55
2021/01/17 18:20:46;;;;;;;1999.90;999.90;;;-2.40;99.90;;;;;;5008101;28;20519;-46
2021/01/17 18:23:13;;;;;;;1999.90;999.90;;;-2.40;99.90;;;;;;5006788;28;21075;-46
2021/01/17 18:25:39;;;;;;;1999.90;999.90;;;-2.40;99.90;;;;;;5008913;28;20477;-46
2021/01/17 18:28:04;;;;;;;1999.90;999.90;;;-2.40;99.90;;;;;;5001092;28;20857;-47
2021/01/17 18:30:30;;;;;;;1999.90;999.90;;;-2.40;99.90;;;;;;5003874;28;20456;-47
2021/01/17 18:32:56;;;;;;;1999.90;999.90;;;-2.40;99.90;;;;;;5006786;28;20488;-46
2021/01/17 18:35:23;;;;;;;1999.90;999.90;;;-2.40;99.90;;;;;;5005407;28;20449;-47
2021/01/17 18:37:49;;;;;;;1999.90;999.90;;;-2.30;99.90;;;;;;5018758;28;20211;-46
2021/01/17 18:40:17;;;;;;;1999.90;999.90;;;-2.30;99.90;;;;;;5015545;28;20453;-46
2021/01/17 18:42:44;;;;;;;1999.90;999.90;;;-2.30;99.90;;;;;;5015177;28;20537;-46
2021/01/17 18:45:11;;;;;;;1999.90;999.90;;;-2.30;99.90;;;;;;5009772;28;20454;-46
2021/01/17 18:47:38;;;;;;;1999.90;999.90;;;-2.30;99.90;;;;;;5011760;28;20679;-46
2021/01/17 18:50:06;;;;;;;1999.90;999.90;;;-2.40;99.90;;;;;;5008556;28;20946;-46
2021/01/17 18:52:32;;;;;;;1999.90;999.90;;;-2.40;99.90;;;;;;5009840;28;20924;-47
2021/01/17 18:55:01;;;;;;;1999.90;999.90;;;-2.50;99.90;;;;;;5009045;28;20434;-47
2021/01/17 18:57:27;;;;;;;1999.90;999.90;;;-2.40;99.90;;;;;;5006477;28;20462;-46
2021/01/17 18:59:55;;;;;;;1999.90;999.90;;;-2.40;99.90;;;;;;5008704;28;20513;-46
2021/01/17 19:02:20;;;;;;;1999.90;999.90;;;-2.40;99.90;;;;;;5008589;28;20509;-46
2021/01/17 19:04:46;;;;;;;1999.90;999.90;;;-2.40;99.90;;;;;;5008446;28;20612;-46
2021/01/17 19:07:12;;;;;;;1999.90;999.90;;;-2.40;99.90;;;;;;5007196;28;20203;-46
2021/01/17 19:09:38;;;;;;;1999.90;999.90;;;-2.40;99.90;;;;;;5010234;28;20192;-47
2021/01/17 19:12:06;;;;;;;1999.90;999.90;;;-2.40;99.90;;;;;;5005685;28;20190;-46
2021/01/17 19:14:35;;;;;;;1999.90;999.90;;;-2.40;99.90;;;;;;5006726;28;20453;-46
2021/01/17 19:17:01;;;;;;;1999.90;999.90;;;-2.40;99.90;;;;;;5005447;28;20462;-46
2021/01/17 19:19:26;;;;;;;1999.90;999.90;;;-2.40;99.90;;;;;;5002827;28;20799;-47
2021/01/17 19:21:55;;;;;;;1999.90;999.90;;;-2.40;99.90;;;;;;5004876;28;20797;-47
2021/01/17 19:24:22;;;;;;;1999.90;999.90;;;-2.40;99.90;;;;;;5006190;28;20218;-47
2021/01/17 19:26:54;;;;;;;1999.90;999.90;;;-2.40;99.90;;;;;;5006524;28;20497;-44
2021/01/17 19:29:20;;;;;;;1999.90;999.90;;;-2.40;99.90;;;;;;5005737;28;20441;-46
2021/01/17 19:31:47;;;;;;;1999.90;999.90;;;-2.40;99.90;;;;;;5002480;28;20438;-45
2021/01/17 19:34:13;;;;;;;1999.90;999.90;;;-2.30;99.90;;;;;;5004651;28;20438;-45
2021/01/17 19:36:39;;;;;;;1999.90;999.90;;;-2.30;99.90;;;;;;5005832;28;20462;-45
2021/01/17 19:39:05;;;;;;;1999.90;999.90;;;-2.40;99.90;;;;;;5006035;28;20437;-45
2021/01/17 19:41:41;;;;;;;1999.90;999.90;;;-2.30;99.90;;;;;;5007070;28;20637;-45
2021/01/17 19:44:06;;;;;;;1999.90;999.90;;;-2.40;99.90;;;;;;5003376;28;20414;-45
2021/01/17 19:46:37;;;;;;;1999.90;999.90;;;-2.50;99.90;;;;;;5006207;28;21052;-45
2021/01/17 19:49:04;;;;;;;1999.90;999.90;;;-2.50;99.90;;;;;;5005348;28;20187;-45
2021/01/17 19:51:30;;;;;;;1999.90;999.90;;;-2.50;99.90;;;;;;5003931;28;20442;-48
2021/01/17 19:53:56;;;;;;;1999.90;999.90;;;-2.50;99.90;;;;;;5006560;28;20540;-45
2021/01/17 19:56:21;;;;;;;1999.90;999.90;;;-2.60;99.90;;;;;;5000092;28;20465;-48
2021/01/17 19:58:47;;;;;;;1999.90;999.90;;;-2.50;99.90;;;;;;5005734;28;20237;-45
2021/01/17 20:01:13;;;;;;;1999.90;999.90;;;-2.50;99.90;;;;;;5003995;28;20265;-45
2021/01/17 20:03:38;;;;;;;1999.90;999.90;;;-2.50;99.90;;;;;;5007080;28;20194;-48
2021/01/17 20:06:04;;;;;;;1999.90;999.90;;;-2.50;99.90;;;;;;5007082;28;20223;-45
2021/01/17 20:08:30;;;;;;;1999.90;999.90;;;-2.50;99.90;;;;;;5007420;28;20191;-45
2021/01/17 20:10:56;;;;;;;1999.90;999.90;;;-2.50;99.90;;;;;;5007229;28;20179;-45
2021/01/17 20:13:22;;;;;;;1999.90;999.90;;;-2.50;99.90;;;;;;5002199;28;20441;-45
2021/01/17 20:15:50;;;;;;;1999.90;999.90;;;-2.40;99.90;;;;;;5006048;28;20527;-45
2021/01/17 20:18:16;;;;;;;1999.90;999.90;;;-2.50;99.90;;;;;;5005011;28;20183;-45
2021/01/17 20:20:42;;;;;;;1999.90;999.90;;;-2.60;99.90;;;;;;5004183;28;20433;-45
2021/01/17 20:23:08;;;;;;;1999.90;999.90;;;-2.50;99.90;;;;;;5004386;28;20450;-45
2021/01/17 20:25:33;;;;;;;1999.90;999.90;;;-2.50;99.90;;;;;;5006379;28;20222;-48
2021/01/17 20:27:59;;;;;;;1999.90;999.90;;;-2.50;99.90;;;;;;5005733;28;20680;-45
2021/01/17 20:30:25;;;;;;;1999.90;999.90;;;-2.50;99.90;;;;;;5006322;28;20198;-45
2021/01/17 20:32:50;;;;;;;1999.90;999.90;;;-2.50;99.90;;;;;;5006910;28;20187;-48
2021/01/17 20:35:16;;;;;;;1999.90;999.90;;;-2.60;99.90;;;;;;4999425;28;20191;-45
2021/01/17 20:37:51;;;;;;;1999.90;999.90;;;-2.60;99.90;;;;;;5003974;28;20191;-49
2021/01/17 20:40:17;;;;;;;1999.90;999.90;;;-2.50;99.90;;;;;;5004975;28;20320;-46
2021/01/17 20:42:43;;;;;;;1999.90;999.90;;;-2.50;99.90;;;;;;5006100;28;21045;-48
2021/01/17 20:45:12;;;;;;;1999.90;999.90;;;-2.40;99.90;;;;;;5004164;28;20466;-47
2021/01/17 20:47:41;;;;;;;1999.90;999.90;;;-2.50;99.90;;;;;;5001915;28;20461;-48
2021/01/17 20:50:07;;;;;;;1999.90;999.90;;;-2.50;99.90;;;;;;5002587;28;20893;-48
2021/01/17 20:52:35;;;;;;;1999.90;999.90;;;-2.60;99.90;;;;;;5002955;28;20801;-48
2021/01/17 20:55:00;;;;;;;1999.90;999.90;;;-2.60;99.90;;;;;;5012140;28;21047;-45
2021/01/17 20:57:26;;;;;;;1999.90;999.90;;;-2.60;99.90;;;;;;5007497;28;20470;-51
2021/01/17 20:59:52;;;;;;;1999.90;999.90;;;-2.60;99.90;;;;;;5009538;28;20179;-48
2021/01/17 21:02:18;;;;;;;1999.90;999.90;;;-2.60;99.90;;;;;;5008543;28;20218;-48
2021/01/17 21:04:43;;;;;;;1999.90;999.90;;;-2.60;99.90;;;;;;5009597;28;20938;-48
2021/01/17 21:07:10;;;;;;;1999.90;999.90;;;-2.60;99.90;;;;;;5008127;28;20230;-48
2021/01/17 21:09:36;;;;;;;1999.90;999.90;;;-2.50;99.90;;;;;;5010507;28;20582;-45
2021/01/17 21:12:04;;;;;;;1999.90;999.90;;;-2.50;99.90;;;;;;4991573;28;20423;-46
2021/01/17 21:14:30;;;;;;;1999.90;999.90;;;-2.40;99.90;;;;;;4997604;28;20453;-45
2021/01/17 21:16:55;;;;;;;1999.90;999.90;;;-2.50;99.90;;;;;;5007819;28;20461;-45
2021/01/17 21:19:21;;;;;;;1999.90;999.90;;;-2.60;99.90;;;;;;5009604;28;20199;-45
2021/01/17 21:21:47;;;;;;;1999.90;999.90;;;-2.60;99.90;;;;;;5008989;28;20568;-45
2021/01/17 21:24:12;;;;;;;1999.90;999.90;;;-2.50;99.90;;;;;;5008311;28;20183;-45
2021/01/17 21:26:38;;;;;;;1999.90;999.90;;;-2.60;99.90;;;;;;5009277;28;20672;-45
2021/01/17 21:29:04;;;;;;;1999.90;999.90;;;-2.60;99.90;;;;;;5005585;28;20230;-47
2021/01/17 21:31:29;;;;;;;1999.90;999.90;;;-2.50;99.90;;;;;;5006896;28;20188;-45
2021/01/17 21:33:55;;;;;;;1999.90;999.90;;;-2.50;99.90;;;;;;5007047;28;20209;-46
2021/01/17 21:36:21;;;;;;;1999.90;999.90;;;-2.50;99.90;;;;;;5009567;28;20294;-45
2021/01/17 21:38:48;;;;;;;1999.90;999.90;;;-2.50;99.90;;;;;;5008480;28;20194;-46
2021/01/17 21:41:14;;;;;;;1999.90;999.90;;;-2.50;99.90;;;;;;5009991;28;20175;-45
2021/01/17 21:43:39;;;;;;;1999.90;999.90;;;-2.50;99.90;;;;;;5005821;28;20446;-45
2021/01/17 21:46:05;;;;;;;1999.90;999.90;;;-2.50;99.90;;;;;;5008088;28;20225;-45
2021/01/17 21:48:31;;;;;;;1999.90;999.90;;;-2.50;99.90;;;;;;5009954;28;20262;-45
2021/01/17 21:50:57;;;;;;;1999.90;999.90;;;-2.50;99.90;;;;;;5006634;28;20727;-48
2021/01/17 21:53:22;;;;;;;1999.90;999.90;;;-2.40;99.90;;;;;;5008152;28;20438;-45
2021/01/17 21:55:48;;;;;;;1999.90;999.90;;;-2.50;99.90;;;;;;5004264;28;20760;-45
2021/01/17 21:58:13;;;;;;;1999.90;999.90;;;-2.50;99.90;;;;;;5002077;28;20730;-45
2021/01/17 22:00:39;;;;;;;1999.90;999.90;;;-2.50;99.90;;;;;;5008965;28;20727;-45
2021/01/17 22:03:05;;;;;;;1999.90;999.90;;;-2.60;99.90;;;;;;5009237;28;20197;-45
2021/01/17 22:05:30;;;;;;;1999.90;999.90;;;-2.60;99.90;;;;;;5009751;28;20225;-45
2021/01/17 22:07:58;;;;;;;1999.90;999.90;;;-2.60;99.90;;;;;;5009659;28;20183;-45
2021/01/17 22:10:24;;;;;;;1999.90;999.90;;;-2.60;99.90;;;;;;5009033;28;20688;-45
2021/01/17 22:12:50;;;;;;;1999.90;999.90;;;-2.50;99.90;;;;;;5008234;28;20446;-45
2021/01/17 22:15:17;;;;;;;1999.90;999.90;;;-2.50;99.90;;;;;;5007948;28;20442;-45
2021/01/17 22:17:43;;;;;;;1999.90;999.90;;;-2.50;99.90;;;;;;5006994;28;20257;-45
2021/01/17 22:20:16;;;;;;;1999.90;999.90;;;-2.50;99.90;;;;;;5009827;28;20454;-45
2021/01/17 22:22:44;;;;;;;1999.90;999.90;;;-2.50;99.90;;;;;;5007540;28;20476;-48
2021/01/17 22:25:11;;;;;;;1999.90;999.90;;;-2.40;99.90;;;;;;5005969;28;20486;-46
2021/01/17 22:27:38;;;;;;;1999.90;999.90;;;-2.40;99.90;;;;;;5000409;28;20453;-45
2021/01/17 22:30:05;;;;;;;1999.90;999.90;;;-2.40;99.90;;;;;;5003859;28;20958;-46
2021/01/17 22:32:31;;;;;;;1999.90;999.90;;;-2.40;99.90;;;;;;5003648;28;20430;-45
2021/01/17 22:34:56;;;;;;;1999.90;999.90;;;-2.40;99.90;;;;;;5008906;28;20993;-45
2021/01/17 22:37:22;;;;;;;1999.90;999.90;;;-2.40;99.90;;;;;;5007859;28;20207;-48
2021/01/17 22:39:51;;;;;;;1999.90;999.90;;;-2.40;99.90;;;;;;5009734;28;20644;-49
